Paige, TX (78659)

3:46 PM CST on February 09, 2016 (GMT -0600)
Manheim, Texas | | Change Station
CLOSE
Current Station
Personal Weather Station
Location: Lincoln, TX
Elevation: 453 ft
Nearby Weather Stations

Elev 453 ft 30.26 °N, 97.04 °W | Updated 17 seconds ago

Clear
Clear
72.0 °F
Feels Like 75 °F
N
2.0
Wind Variable Wind from WSW
Gusts 2.5 mph

Today
High -- | Low -- °F
--% Chance of Precip.
Yesterday
High -- | Low -- °F
Precip. -- in
Pressure 30.26 in
Visibility 10.0 miles
Clouds Clear
Heat Index 75 °F
Dew Point 28 °F
Humidity 19%
Rainfall 0.00 in
Snow Depth Not available.
7:13 AM 6:11 PM
New Moon, 2% visible
METAR KGYB 092135Z AUTO 33010KT 10SM CLR 20/M02 A3026 RMK AO2 T01991022
Pressure 30.26 in
Visibility 10.0 miles
Clouds Clear
Heat Index 75 °F
Dew Point 28 °F
Humidity 19%
Rainfall 0.00 in
Snow Depth Not available.
7:13 AM 6:11 PM
New Moon, 2% visible
METAR KGYB 092135Z AUTO 33010KT 10SM CLR 20/M02 A3026 RMK AO2 T01991022

10-Day Weather Forecast

Almanac

Astronomy

Feb. 09, 2016 Rise Set
Actual Time
Civil Twilight
Nautical Twilight
Astronomical Twilight
Moon
Length of Visible Light
Length of Day
Tomorrow will be .
, % of the Moon is Illuminated

Today's Extremes

State Highs State Lows

Community

WunderPhotos

Upload Photos

1,891,710 photos uploaded!

WunderBlog® & News

Nearby

Air Quality

  Air Quality AQ Index Pollutant
Not available.

Snow Depth

Station Depth Elevation

Earthquake Activity

City Distance Mag. Time & Date
Minimum magnitude displayed is 2.5.

Coastal Water Temperatures

Place Temperature

Stations

Nearby Weather Stations

Station Location Temp. Windchill Dew Point Humidity Wind Precip. Elev Updated Type
                   

Watches & Warnings

There are currently no watches in effect.